sensor_id;sensor_type;location;lat;lon;timestamp;pressure;altitude;pressure_sealevel;temperature;humidity
43818;BME280;29868;47.360;18.984;2022-09-13T00:01:15;100244.56;;;10.08;100.00
43818;BME280;29868;47.360;18.984;2022-09-13T00:03:40;100241.06;;;10.06;100.00
43818;BME280;29868;47.360;18.984;2022-09-13T00:06:14;100236.78;;;10.10;100.00
43818;BME280;29868;47.360;18.984;2022-09-13T00:08:40;100236.69;;;10.04;100.00
43818;BME280;29868;47.360;18.984;2022-09-13T00:11:05;100242.81;;;10.07;100.00
43818;BME280;29868;47.360;18.984;2022-09-13T00:13:31;100239.44;;;10.14;100.00
43818;BME280;29868;47.360;18.984;2022-09-13T00:15:56;100240.13;;;10.03;100.00
43818;BME280;29868;47.360;18.984;2022-09-13T00:18:22;100241.78;;;9.97;100.00
43818;BME280;29868;47.360;18.984;2022-09-13T00:20:49;100241.00;;;10.02;100.00
43818;BME280;29868;47.360;18.984;2022-09-13T00:23:14;100231.50;;;10.04;100.00
43818;BME280;29868;47.360;18.984;2022-09-13T00:25:39;100236.59;;;9.97;100.00
43818;BME280;29868;47.360;18.984;2022-09-13T00:28:05;100239.13;;;9.93;100.00
43818;BME280;29868;47.360;18.984;2022-09-13T00:30:31;100234.88;;;9.98;100.00
43818;BME280;29868;47.360;18.984;2022-09-13T00:32:57;100229.69;;;9.98;100.00
43818;BME280;29868;47.360;18.984;2022-09-13T00:35:22;100231.38;;;9.94;100.00
43818;BME280;29868;47.360;18.984;2022-09-13T00:37:48;100234.06;;;10.01;100.00
43818;BME280;29868;47.360;18.984;2022-09-13T00:40:14;100226.97;;;9.90;100.00
43818;BME280;29868;47.360;18.984;2022-09-13T00:42:40;100231.38;;;9.94;100.00
43818;BME280;29868;47.360;18.984;2022-09-13T00:50:10;100232.78;;;9.77;100.00
43818;BME280;29868;47.360;18.984;2022-09-13T00:52:39;100232.91;;;9.82;100.00
43818;BME280;29868;47.360;18.984;2022-09-13T00:55:12;100236.31;;;9.79;100.00
43818;BME280;29868;47.360;18.984;2022-09-13T00:57:39;100236.25;;;9.76;100.00
43818;BME280;29868;47.360;18.984;2022-09-13T01:00:11;100228.38;;;9.70;100.00
43818;BME280;29868;47.360;18.984;2022-09-13T01:02:42;100235.38;;;9.74;100.00
43818;BME280;29868;47.360;18.984;2022-09-13T01:05:10;100236.28;;;9.78;100.00
43818;BME280;29868;47.360;18.984;2022-09-13T01:07:36;100225.81;;;9.73;100.00
43818;BME280;29868;47.360;18.984;2022-09-13T01:10:03;100230.06;;;9.69;100.00
43818;BME280;29868;47.360;18.984;2022-09-13T01:13:05;100233.44;;;9.64;100.00
43818;BME280;29868;47.360;18.984;2022-09-13T01:15:28;100231.72;;;9.63;100.00
43818;BME280;29868;47.360;18.984;2022-09-13T01:17:54;100243.69;;;9.56;100.00
43818;BME280;29868;47.360;18.984;2022-09-13T01:20:24;100239.44;;;9.60;100.00
43818;BME280;29868;47.360;18.984;2022-09-13T01:29:35;100228.84;;;9.47;100.00
43818;BME280;29868;47.360;18.984;2022-09-13T01:35:26;100229.00;;;9.58;100.00
43818;BME280;29868;47.360;18.984;2022-09-13T01:41:00;100235.78;;;9.48;100.00
43818;BME280;29868;47.360;18.984;2022-09-13T01:43:54;100232.25;;;9.46;100.00
43818;BME280;29868;47.360;18.984;2022-09-13T01:46:29;100232.31;;;9.49;100.00
43818;BME280;29868;47.360;18.984;2022-09-13T01:51:36;100231.47;;;9.50;100.00
43818;BME280;29868;47.360;18.984;2022-09-13T01:54:19;100215.16;;;9.55;100.00
43818;BME280;29868;47.360;18.984;2022-09-13T01:57:08;100222.00;;;9.53;100.00
43818;BME280;29868;47.360;18.984;2022-09-13T02:02:46;100228.78;;;9.44;100.00
43818;BME280;29868;47.360;18.984;2022-09-13T02:05:39;100224.41;;;9.42;100.00
43818;BME280;29868;47.360;18.984;2022-09-13T02:11:10;100213.09;;;9.37;100.00
43818;BME280;29868;47.360;18.984;2022-09-13T02:13:42;100207.78;;;9.29;100.00
43818;BME280;29868;47.360;18.984;2022-09-13T02:16:33;100207.84;;;9.32;100.00
43818;BME280;29868;47.360;18.984;2022-09-13T02:19:06;100210.38;;;9.29;100.00
43818;BME280;29868;47.360;18.984;2022-09-13T02:21:35;100214.75;;;9.33;100.00
43818;BME280;29868;47.360;18.984;2022-09-13T02:24:08;100215.66;;;9.35;100.00
43818;BME280;29868;47.360;18.984;2022-09-13T02:26:36;100212.03;;;9.25;100.00
43818;BME280;29868;47.360;18.984;2022-09-13T02:29:08;100211.91;;;9.19;100.00
43818;BME280;29868;47.360;18.984;2022-09-13T02:31:49;100196.34;;;9.19;100.00
43818;BME280;29868;47.360;18.984;2022-09-13T02:34:21;100206.72;;;9.19;100.00
43818;BME280;29868;47.360;18.984;2022-09-13T02:36:51;100208.44;;;9.19;100.00
43818;BME280;29868;47.360;18.984;2022-09-13T02:39:22;100209.28;;;9.18;100.00
43818;BME280;29868;47.360;18.984;2022-09-13T02:44:44;100204.81;;;9.09;100.00
43818;BME280;29868;47.360;18.984;2022-09-13T02:55:58;100194.31;;;9.03;100.00
43818;BME280;29868;47.360;18.984;2022-09-13T02:58:31;100204.03;;;9.15;100.00
43818;BME280;29868;47.360;18.984;2022-09-13T03:00:59;100197.53;;;9.37;100.00
43818;BME280;29868;47.360;18.984;2022-09-13T03:03:25;100188.31;;;9.53;100.00
43818;BME280;29868;47.360;18.984;2022-09-13T03:05:51;100189.84;;;9.41;100.00
43818;BME280;29868;47.360;18.984;2022-09-13T03:08:17;100187.13;;;9.35;100.00
43818;BME280;29868;47.360;18.984;2022-09-13T03:13:58;100176.50;;;9.20;100.00
43818;BME280;29868;47.360;18.984;2022-09-13T03:22:17;100174.13;;;9.32;100.00
43818;BME280;29868;47.360;18.984;2022-09-13T03:31:00;100181.78;;;9.26;100.00
43818;BME280;29868;47.360;18.984;2022-09-13T03:33:43;100171.63;;;9.38;100.00
43818;BME280;29868;47.360;18.984;2022-09-13T03:36:15;100172.22;;;9.23;100.00
43818;BME280;29868;47.360;18.984;2022-09-13T03:41:50;100174.47;;;9.05;100.00
43818;BME280;29868;47.360;18.984;2022-09-13T03:44:20;100169.16;;;8.97;100.00
43818;BME280;29868;47.360;18.984;2022-09-13T03:46:49;100166.56;;;8.97;100.00
43818;BME280;29868;47.360;18.984;2022-09-13T03:49:17;100169.06;;;8.93;100.00
43818;BME280;29868;47.360;18.984;2022-09-13T03:51:47;100158.78;;;8.96;100.00
43818;BME280;29868;47.360;18.984;2022-09-13T03:54:21;100166.19;;;9.23;100.00
43818;BME280;29868;47.360;18.984;2022-09-13T03:59:42;100165.03;;;9.07;100.00
43818;BME280;29868;47.360;18.984;2022-09-13T04:02:10;100162.31;;;9.01;100.00
43818;BME280;29868;47.360;18.984;2022-09-13T04:04:39;100167.41;;;8.96;100.00
43818;BME280;29868;47.360;18.984;2022-09-13T04:07:04;100162.00;;;8.84;100.00
43818;BME280;29868;47.360;18.984;2022-09-13T04:09:30;100167.13;;;8.81;100.00
43818;BME280;29868;47.360;18.984;2022-09-13T04:11:56;100171.28;;;8.73;100.00
43818;BME280;29868;47.360;18.984;2022-09-13T04:14:21;100167.84;;;8.74;100.00
43818;BME280;29868;47.360;18.984;2022-09-13T04:16:51;100173.00;;;8.72;100.00
43818;BME280;29868;47.360;18.984;2022-09-13T04:19:16;100182.44;;;8.69;100.00
43818;BME280;29868;47.360;18.984;2022-09-13T04:21:41;100173.81;;;8.70;100.00
43818;BME280;29868;47.360;18.984;2022-09-13T04:24:07;100178.09;;;8.68;100.00
43818;BME280;29868;47.360;18.984;2022-09-13T04:26:32;100178.06;;;8.66;100.00
43818;BME280;29868;47.360;18.984;2022-09-13T04:28:59;100179.78;;;8.67;100.00
43818;BME280;29868;47.360;18.984;2022-09-13T04:31:25;100178.91;;;8.67;100.00
43818;BME280;29868;47.360;18.984;2022-09-13T04:33:50;100175.53;;;8.71;100.00
43818;BME280;29868;47.360;18.984;2022-09-13T04:36:15;100179.91;;;8.73;100.00
43818;BME280;29868;47.360;18.984;2022-09-13T04:38:41;100182.72;;;8.84;100.00
43818;BME280;29868;47.360;18.984;2022-09-13T04:41:06;100176.56;;;8.77;100.00
43818;BME280;29868;47.360;18.984;2022-09-13T04:43:34;100168.00;;;8.82;100.00
43818;BME280;29868;47.360;18.984;2022-09-13T04:46:00;100178.50;;;8.88;100.00
43818;BME280;29868;47.360;18.984;2022-09-13T04:48:25;100171.56;;;8.87;100.00
43818;BME280;29868;47.360;18.984;2022-09-13T04:50:51;100181.16;;;8.92;100.00
43818;BME280;29868;47.360;18.984;2022-09-13T04:53:17;100183.19;;;9.09;100.00
43818;BME280;29868;47.360;18.984;2022-09-13T04:55:42;100177.69;;;9.39;100.00
43818;BME280;29868;47.360;18.984;2022-09-13T04:58:08;100183.06;;;9.49;100.00
43818;BME280;29868;47.360;18.984;2022-09-13T05:00:33;100186.91;;;9.73;100.00
43818;BME280;29868;47.360;18.984;2022-09-13T05:03:00;100178.78;;;10.06;100.00
43818;BME280;29868;47.360;18.984;2022-09-13T05:05:25;100181.63;;;10.23;100.00
43818;BME280;29868;47.360;18.984;2022-09-13T05:07:53;100187.53;;;10.75;100.00
43818;BME280;29868;47.360;18.984;2022-09-13T05:10:18;100183.53;;;11.05;100.00
43818;BME280;29868;47.360;18.984;2022-09-13T05:12:44;100184.63;;;11.28;100.00
43818;BME280;29868;47.360;18.984;2022-09-13T05:15:10;100186.56;;;11.44;100.00
43818;BME280;29868;47.360;18.984;2022-09-13T05:17:36;100189.03;;;11.35;100.00
43818;BME280;29868;47.360;18.984;2022-09-13T05:20:03;100184.88;;;11.53;100.00
43818;BME280;29868;47.360;18.984;2022-09-13T05:22:29;100189.69;;;12.12;100.00
43818;BME280;29868;47.360;18.984;2022-09-13T05:24:55;100190.63;;;12.23;100.00
43818;BME280;29868;47.360;18.984;2022-09-13T05:27:21;100183.84;;;12.47;100.00
43818;BME280;29868;47.360;18.984;2022-09-13T05:29:46;100191.81;;;12.91;100.00
43818;BME280;29868;47.360;18.984;2022-09-13T05:32:12;100191.16;;;13.56;100.00
43818;BME280;29868;47.360;18.984;2022-09-13T05:34:37;100190.25;;;14.14;100.00
43818;BME280;29868;47.360;18.984;2022-09-13T05:37:03;100189.22;;;14.73;100.00
43818;BME280;29868;47.360;18.984;2022-09-13T05:39:28;100197.69;;;15.24;100.00
43818;BME280;29868;47.360;18.984;2022-09-13T05:41:53;100193.72;;;15.96;100.00
43818;BME280;29868;47.360;18.984;2022-09-13T05:44:19;100199.97;;;16.64;100.00
43818;BME280;29868;47.360;18.984;2022-09-13T05:46:47;100199.97;;;17.35;100.00
43818;BME280;29868;47.360;18.984;2022-09-13T05:49:13;100197.81;;;18.14;100.00
43818;BME280;29868;47.360;18.984;2022-09-13T05:51:39;100196.34;;;17.98;100.00
43818;BME280;29868;47.360;18.984;2022-09-13T05:54:04;100198.56;;;18.21;100.00
43818;BME280;29868;47.360;18.984;2022-09-13T05:56:30;100198.03;;;18.02;100.00
43818;BME280;29868;47.360;18.984;2022-09-13T05:58:56;100202.44;;;18.93;100.00
43818;BME280;29868;47.360;18.984;2022-09-13T06:01:24;100214.56;;;19.02;100.00
43818;BME280;29868;47.360;18.984;2022-09-13T06:03:52;100219.06;;;18.02;100.00
43818;BME280;29868;47.360;18.984;2022-09-13T06:06:18;100218.06;;;19.01;100.00
43818;BME280;29868;47.360;18.984;2022-09-13T06:08:44;100222.94;;;19.97;100.00
43818;BME280;29868;47.360;18.984;2022-09-13T06:11:11;100224.59;;;19.63;100.00
43818;BME280;29868;47.360;18.984;2022-09-13T06:13:38;100228.34;;;20.25;100.00
43818;BME280;29868;47.360;18.984;2022-09-13T06:16:06;100219.34;;;18.83;100.00
43818;BME280;29868;47.360;18.984;2022-09-13T06:18:32;100221.25;;;17.75;100.00
43818;BME280;29868;47.360;18.984;2022-09-13T06:21:04;100215.13;;;17.13;100.00
43818;BME280;29868;47.360;18.984;2022-09-13T06:23:30;100217.28;;;16.81;100.00
43818;BME280;29868;47.360;18.984;2022-09-13T06:26:15;100211.56;;;16.43;100.00
43818;BME280;29868;47.360;18.984;2022-09-13T06:28:41;100212.69;;;16.19;100.00
43818;BME280;29868;47.360;18.984;2022-09-13T06:31:12;100205.09;;;15.92;100.00
43818;BME280;29868;47.360;18.984;2022-09-13T06:33:40;100212.91;;;15.96;100.00
43818;BME280;29868;47.360;18.984;2022-09-13T06:36:11;100215.47;;;16.04;100.00
43818;BME280;29868;47.360;18.984;2022-09-13T06:38:38;100214.66;;;15.99;100.00
43818;BME280;29868;47.360;18.984;2022-09-13T06:41:09;100209.50;;;15.85;100.00
43818;BME280;29868;47.360;18.984;2022-09-13T06:43:35;100211.16;;;15.94;100.00
43818;BME280;29868;47.360;18.984;2022-09-13T06:46:06;100212.19;;;15.80;100.00
43818;BME280;29868;47.360;18.984;2022-09-13T06:48:33;100213.13;;;15.70;100.00
43818;BME280;29868;47.360;18.984;2022-09-13T06:51:00;100215.53;;;15.93;100.00
43818;BME280;29868;47.360;18.984;2022-09-13T06:53:26;100214.59;;;16.02;100.00
43818;BME280;29868;47.360;18.984;2022-09-13T06:56:18;100226.75;;;16.09;100.00
43818;BME280;29868;47.360;18.984;2022-09-13T06:58:45;100222.38;;;16.14;100.00
43818;BME280;29868;47.360;18.984;2022-09-13T07:01:22;100218.66;;;16.35;100.00
43818;BME280;29868;47.360;18.984;2022-09-13T07:03:53;100229.06;;;16.43;100.00
43818;BME280;29868;47.360;18.984;2022-09-13T07:06:21;100227.94;;;16.65;100.00
43818;BME280;29868;47.360;18.984;2022-09-13T07:08:48;100235.59;;;16.85;100.00
43818;BME280;29868;47.360;18.984;2022-09-13T07:11:16;100232.16;;;16.83;100.00
43818;BME280;29868;47.360;18.984;2022-09-13T07:13:51;100234.59;;;16.95;100.00
43818;BME280;29868;47.360;18.984;2022-09-13T07:16:19;100234.13;;;17.31;100.00
43818;BME280;29868;47.360;18.984;2022-09-13T07:18:45;100230.31;;;17.53;100.00
43818;BME280;29868;47.360;18.984;2022-09-13T07:21:14;100224.72;;;17.78;100.00
43818;BME280;29868;47.360;18.984;2022-09-13T07:23:41;100226.13;;;18.00;100.00
43818;BME280;29868;47.360;18.984;2022-09-13T07:26:08;100237.06;;;18.25;100.00
43818;BME280;29868;47.360;18.984;2022-09-13T07:28:41;100245.06;;;18.17;100.00
43818;BME280;29868;47.360;18.984;2022-09-13T07:31:10;100243.22;;;18.24;100.00
43818;BME280;29868;47.360;18.984;2022-09-13T07:33:37;100238.94;;;18.65;100.00
43818;BME280;29868;47.360;18.984;2022-09-13T07:36:03;100238.53;;;18.88;100.00
43818;BME280;29868;47.360;18.984;2022-09-13T07:38:41;100235.53;;;19.06;100.00
43818;BME280;29868;47.360;18.984;2022-09-13T07:41:10;100234.88;;;19.35;100.00
43818;BME280;29868;47.360;18.984;2022-09-13T07:43:36;100239.22;;;19.38;100.00
43818;BME280;29868;47.360;18.984;2022-09-13T07:48:29;100239.69;;;19.55;100.00
43818;BME280;29868;47.360;18.984;2022-09-13T07:51:02;100247.41;;;19.64;100.00
43818;BME280;29868;47.360;18.984;2022-09-13T07:53:29;100247.66;;;19.91;100.00
43818;BME280;29868;47.360;18.984;2022-09-13T07:56:08;100246.94;;;20.18;100.00
43818;BME280;29868;47.360;18.984;2022-09-13T07:58:36;100249.69;;;19.80;100.00
43818;BME280;29868;47.360;18.984;2022-09-13T08:01:11;100249.25;;;19.98;100.00
43818;BME280;29868;47.360;18.984;2022-09-13T08:03:38;100243.59;;;19.78;100.00
43818;BME280;29868;47.360;18.984;2022-09-13T08:06:04;100250.53;;;19.82;100.00
43818;BME280;29868;47.360;18.984;2022-09-13T08:08:30;100250.09;;;20.34;100.00
43818;BME280;29868;47.360;18.984;2022-09-13T08:10:57;100252.03;;;20.60;100.00
43818;BME280;29868;47.360;18.984;2022-09-13T08:13:23;100249.28;;;20.96;88.10
43818;BME280;29868;47.360;18.984;2022-09-13T08:15:49;100252.75;;;21.57;86.09
43818;BME280;29868;47.360;18.984;2022-09-13T08:18:18;100254.78;;;21.49;83.86
43818;BME280;29868;47.360;18.984;2022-09-13T08:20:43;100262.31;;;21.32;80.35
43818;BME280;29868;47.360;18.984;2022-09-13T08:23:10;100257.63;;;21.12;77.86
43818;BME280;29868;47.360;18.984;2022-09-13T08:25:37;100252.59;;;21.34;77.53
43818;BME280;29868;47.360;18.984;2022-09-13T08:28:16;100249.09;;;21.02;75.40
43818;BME280;29868;47.360;18.984;2022-09-13T08:30:43;100252.56;;;21.04;74.08
43818;BME280;29868;47.360;18.984;2022-09-13T08:33:10;100251.34;;;21.16;75.70
43818;BME280;29868;47.360;18.984;2022-09-13T08:35:36;100253.19;;;21.12;73.92
43818;BME280;29868;47.360;18.984;2022-09-13T08:38:03;100246.81;;;21.20;72.64
43818;BME280;29868;47.360;18.984;2022-09-13T08:40:45;100244.19;;;21.20;74.01
43818;BME280;29868;47.360;18.984;2022-09-13T08:43:38;100239.97;;;20.83;71.60
43818;BME280;29868;47.360;18.984;2022-09-13T08:48:39;100245.72;;;20.97;71.55
43818;BME280;29868;47.360;18.984;2022-09-13T08:51:19;100247.28;;;21.04;72.04
43818;BME280;29868;47.360;18.984;2022-09-13T08:53:49;100249.19;;;20.99;69.77
43818;BME280;29868;47.360;18.984;2022-09-13T09:04:20;100240.50;;;21.83;63.77
43818;BME280;29868;47.360;18.984;2022-09-13T09:07:02;100241.78;;;21.70;61.02
43818;BME280;29868;47.360;18.984;2022-09-13T09:09:35;100243.22;;;21.80;64.06
43818;BME280;29868;47.360;18.984;2022-09-13T09:12:09;100241.16;;;21.32;62.61
43818;BME280;29868;47.360;18.984;2022-09-13T09:14:41;100240.78;;;21.46;62.23
43818;BME280;29868;47.360;18.984;2022-09-13T09:17:22;100241.06;;;21.36;63.85
43818;BME280;29868;47.360;18.984;2022-09-13T09:19:55;100230.75;;;21.57;62.51
43818;BME280;29868;47.360;18.984;2022-09-13T09:22:30;100227.38;;;21.80;59.81
43818;BME280;29868;47.360;18.984;2022-09-13T09:24:57;100225.38;;;21.60;64.44
43818;BME280;29868;47.360;18.984;2022-09-13T09:27:22;100212.53;;;21.74;61.40
43818;BME280;29868;47.360;18.984;2022-09-13T09:29:49;100212.34;;;21.54;62.42
43818;BME280;29868;47.360;18.984;2022-09-13T09:35:43;100201.34;;;21.68;61.31
43818;BME280;29868;47.360;18.984;2022-09-13T09:38:22;100204.06;;;21.91;59.63
43818;BME280;29868;47.360;18.984;2022-09-13T09:40:52;100203.00;;;22.23;60.64
43818;BME280;29868;47.360;18.984;2022-09-13T09:43:49;100199.03;;;22.60;59.25
43818;BME280;29868;47.360;18.984;2022-09-13T09:46:20;100202.28;;;22.92;57.41
43818;BME280;29868;47.360;18.984;2022-09-13T09:48:51;100197.16;;;23.11;57.26
43818;BME280;29868;47.360;18.984;2022-09-13T09:51:19;100201.19;;;22.74;57.35
43818;BME280;29868;47.360;18.984;2022-09-13T09:53:47;100195.31;;;22.89;56.28
43818;BME280;29868;47.360;18.984;2022-09-13T09:56:25;100190.25;;;22.83;55.43
43818;BME280;29868;47.360;18.984;2022-09-13T09:58:53;100190.16;;;23.10;55.03
43818;BME280;29868;47.360;18.984;2022-09-13T10:01:26;100178.50;;;23.14;55.31
43818;BME280;29868;47.360;18.984;2022-09-13T10:06:41;100167.97;;;22.89;51.38
43818;BME280;29868;47.360;18.984;2022-09-13T10:11:44;100163.47;;;22.44;54.53
43818;BME280;29868;47.360;18.984;2022-09-13T10:19:36;100167.03;;;23.13;54.03
43818;BME280;29868;47.360;18.984;2022-09-13T10:22:07;100172.25;;;23.38;52.03
43818;BME280;29868;47.360;18.984;2022-09-13T10:24:34;100162.94;;;23.50;49.51
43818;BME280;29868;47.360;18.984;2022-09-13T10:27:00;100161.66;;;23.38;49.28
43818;BME280;29868;47.360;18.984;2022-09-13T10:29:28;100162.69;;;23.34;51.71
43818;BME280;29868;47.360;18.984;2022-09-13T10:31:55;100149.25;;;23.17;52.39
43818;BME280;29868;47.360;18.984;2022-09-13T10:34:32;100153.38;;;23.24;50.17
43818;BME280;29868;47.360;18.984;2022-09-13T10:37:03;100153.72;;;23.59;47.70
43818;BME280;29868;47.360;18.984;2022-09-13T10:39:32;100148.63;;;23.76;49.05
43818;BME280;29868;47.360;18.984;2022-09-13T10:44:44;100144.88;;;24.02;48.93
43818;BME280;29868;47.360;18.984;2022-09-13T10:47:38;100141.91;;;23.67;48.47
43818;BME280;29868;47.360;18.984;2022-09-13T10:50:31;100141.16;;;24.06;48.78
43818;BME280;29868;47.360;18.984;2022-09-13T10:52:59;100148.78;;;24.14;48.69
43818;BME280;29868;47.360;18.984;2022-09-13T10:55:28;100144.78;;;24.44;49.14
43818;BME280;29868;47.360;18.984;2022-09-13T11:00:36;100138.88;;;23.54;48.18
43818;BME280;29868;47.360;18.984;2022-09-13T11:11:16;100138.81;;;24.39;49.31
43818;BME280;29868;47.360;18.984;2022-09-13T11:27:01;100130.50;;;24.47;45.06
43818;BME280;29868;47.360;18.984;2022-09-13T11:29:46;100123.84;;;24.76;46.35
43818;BME280;29868;47.360;18.984;2022-09-13T11:40:33;100111.66;;;25.10;42.20
43818;BME280;29868;47.360;18.984;2022-09-13T11:45:39;100104.81;;;25.23;42.29
43818;BME280;29868;47.360;18.984;2022-09-13T11:48:38;100102.19;;;24.85;39.73
43818;BME280;29868;47.360;18.984;2022-09-13T11:54:40;100094.09;;;25.06;42.94
43818;BME280;29868;47.360;18.984;2022-09-13T11:56:55;100096.28;;;24.41;41.14
43818;BME280;29868;47.360;18.984;2022-09-13T11:59:58;100092.47;;;24.46;44.11
43818;BME280;29868;47.360;18.984;2022-09-13T12:02:31;100083.50;;;24.68;43.10
43818;BME280;29868;47.360;18.984;2022-09-13T12:07:48;100081.91;;;25.20;42.69
43818;BME280;29868;47.360;18.984;2022-09-13T12:10:33;100082.59;;;25.24;41.90
43818;BME280;29868;47.360;18.984;2022-09-13T12:13:02;100084.97;;;25.47;40.96
43818;BME280;29868;47.360;18.984;2022-09-13T12:15:36;100083.28;;;25.10;40.66
43818;BME280;29868;47.360;18.984;2022-09-13T12:20:40;100092.22;;;25.27;42.72
43818;BME280;29868;47.360;18.984;2022-09-13T12:23:13;100085.44;;;25.38;39.61
43818;BME280;29868;47.360;18.984;2022-09-13T12:31:38;100064.72;;;25.80;40.35
43818;BME280;29868;47.360;18.984;2022-09-13T12:34:05;100066.31;;;25.84;40.13
43818;BME280;29868;47.360;18.984;2022-09-13T12:48:03;100055.19;;;25.05;40.81
43818;BME280;29868;47.360;18.984;2022-09-13T13:01:30;100051.19;;;24.39;42.44
43818;BME280;29868;47.360;18.984;2022-09-13T13:04:19;100053.09;;;24.56;43.53
43818;BME280;29868;47.360;18.984;2022-09-13T13:07:01;100045.88;;;24.39;43.84
43818;BME280;29868;47.360;18.984;2022-09-13T13:11:58;100041.09;;;24.08;42.07
43818;BME280;29868;47.360;18.984;2022-09-13T13:23:31;100045.50;;;24.28;41.62
43818;BME280;29868;47.360;18.984;2022-09-13T13:31:09;100024.59;;;24.60;43.49
43818;BME280;29868;47.360;18.984;2022-09-13T13:42:18;100025.53;;;24.40;42.74
43818;BME280;29868;47.360;18.984;2022-09-13T13:52:57;100007.69;;;24.80;43.61
43818;BME280;29868;47.360;18.984;2022-09-13T13:55:43;100007.06;;;25.11;44.20
43818;BME280;29868;47.360;18.984;2022-09-13T14:01:14;100007.41;;;24.86;44.09
43818;BME280;29868;47.360;18.984;2022-09-13T14:10:25;100009.88;;;24.52;42.96
43818;BME280;29868;47.360;18.984;2022-09-13T14:21:18;99986.31;;;24.26;43.64
43818;BME280;29868;47.360;18.984;2022-09-13T14:23:44;99993.44;;;24.25;44.43
43818;BME280;29868;47.360;18.984;2022-09-13T14:26:10;99999.84;;;24.40;43.91
43818;BME280;29868;47.360;18.984;2022-09-13T14:28:36;99990.66;;;24.47;44.87
43818;BME280;29868;47.360;18.984;2022-09-13T14:31:02;99986.13;;;24.49;44.19
43818;BME280;29868;47.360;18.984;2022-09-13T14:33:31;99985.19;;;24.50;44.04
43818;BME280;29868;47.360;18.984;2022-09-13T14:36:01;99980.56;;;24.35;43.56
43818;BME280;29868;47.360;18.984;2022-09-13T14:38:30;99978.59;;;24.40;44.15
43818;BME280;29868;47.360;18.984;2022-09-13T14:41:00;99980.94;;;24.27;44.46
43818;BME280;29868;47.360;18.984;2022-09-13T14:43:28;99986.09;;;24.12;44.04
43818;BME280;29868;47.360;18.984;2022-09-13T14:49:00;99981.94;;;24.25;44.86
43818;BME280;29868;47.360;18.984;2022-09-13T14:51:30;99975.72;;;24.26;43.70
43818;BME280;29868;47.360;18.984;2022-09-13T14:54:10;99971.38;;;24.23;45.15
43818;BME280;29868;47.360;18.984;2022-09-13T14:56:43;99964.22;;;24.07;44.57
43818;BME280;29868;47.360;18.984;2022-09-13T14:59:32;99963.06;;;23.93;44.21
43818;BME280;29868;47.360;18.984;2022-09-13T15:02:36;99960.19;;;23.79;45.31
43818;BME280;29868;47.360;18.984;2022-09-13T15:05:05;99953.25;;;23.95;47.98
43818;BME280;29868;47.360;18.984;2022-09-13T15:07:35;99959.50;;;23.94;46.37
43818;BME280;29868;47.360;18.984;2022-09-13T15:13:14;99956.94;;;23.52;45.65
43818;BME280;29868;47.360;18.984;2022-09-13T15:15:40;99950.28;;;23.23;45.73
43818;BME280;29868;47.360;18.984;2022-09-13T15:23:34;99946.72;;;22.80;48.37
43818;BME280;29868;47.360;18.984;2022-09-13T15:26:05;99937.44;;;22.92;48.73
43818;BME280;29868;47.360;18.984;2022-09-13T15:28:51;99938.75;;;23.03;47.14
43818;BME280;29868;47.360;18.984;2022-09-13T15:31:34;99931.66;;;23.04;47.44
43818;BME280;29868;47.360;18.984;2022-09-13T15:39:41;99915.47;;;22.68;48.97
43818;BME280;29868;47.360;18.984;2022-09-13T15:42:06;99917.56;;;22.59;49.61
43818;BME280;29868;47.360;18.984;2022-09-13T15:44:32;99917.16;;;22.48;48.78
43818;BME280;29868;47.360;18.984;2022-09-13T15:47:00;99908.22;;;22.51;50.44
43818;BME280;29868;47.360;18.984;2022-09-13T15:49:28;99910.03;;;22.50;49.32
43818;BME280;29868;47.360;18.984;2022-09-13T15:52:05;99910.38;;;22.41;49.92
43818;BME280;29868;47.360;18.984;2022-09-13T15:54:36;99909.72;;;22.36;50.93
43818;BME280;29868;47.360;18.984;2022-09-13T15:57:08;99911.81;;;22.28;51.33
43818;BME280;29868;47.360;18.984;2022-09-13T15:59:37;99914.31;;;22.31;52.43
43818;BME280;29868;47.360;18.984;2022-09-13T16:02:18;99909.38;;;22.22;51.66
43818;BME280;29868;47.360;18.984;2022-09-13T16:04:44;99898.34;;;22.10;54.92
43818;BME280;29868;47.360;18.984;2022-09-13T16:07:09;99895.34;;;21.96;54.85
43818;BME280;29868;47.360;18.984;2022-09-13T16:09:35;99893.41;;;21.78;56.10
43818;BME280;29868;47.360;18.984;2022-09-13T16:12:02;99886.69;;;21.69;57.92
43818;BME280;29868;47.360;18.984;2022-09-13T16:14:28;99877.56;;;21.54;58.82
43818;BME280;29868;47.360;18.984;2022-09-13T16:16:53;99883.94;;;21.49;59.72
43818;BME280;29868;47.360;18.984;2022-09-13T16:19:20;99883.31;;;21.42;61.12
43818;BME280;29868;47.360;18.984;2022-09-13T16:21:46;99882.47;;;21.40;59.14
43818;BME280;29868;47.360;18.984;2022-09-13T16:24:12;99883.72;;;21.30;63.09
43818;BME280;29868;47.360;18.984;2022-09-13T16:26:38;99882.41;;;21.17;63.65
43818;BME280;29868;47.360;18.984;2022-09-13T16:29:04;99879.84;;;21.15;63.74
43818;BME280;29868;47.360;18.984;2022-09-13T16:31:30;99869.16;;;20.93;66.92
43818;BME280;29868;47.360;18.984;2022-09-13T16:33:55;99880.94;;;20.83;69.87
43818;BME280;29868;47.360;18.984;2022-09-13T16:36:20;99870.81;;;20.71;72.75
43818;BME280;29868;47.360;18.984;2022-09-13T16:38:46;99875.31;;;20.69;75.25
43818;BME280;29868;47.360;18.984;2022-09-13T16:41:11;99872.63;;;20.42;77.35
43818;BME280;29868;47.360;18.984;2022-09-13T16:43:37;99865.00;;;20.33;79.96